createdAt,value
2022-11-05T00:01:15.275Z,13.00
2022-11-05T00:04:00.939Z,13.00
2022-11-05T00:06:46.830Z,13.10
2022-11-05T00:09:29.952Z,13.10
2022-11-05T00:12:23.142Z,13.10
2022-11-05T00:15:08.867Z,13.00
2022-11-05T00:17:37.449Z,13.00
2022-11-05T00:20:06.924Z,13.00
2022-11-05T00:22:52.832Z,12.90
2022-11-05T00:25:22.151Z,12.90
2022-11-05T00:27:53.547Z,12.90
2022-11-05T00:30:23.937Z,13.00
2022-11-05T00:32:52.445Z,13.00
2022-11-05T00:35:22.001Z,13.10
2022-11-05T00:37:50.540Z,13.10
2022-11-05T00:40:18.449Z,13.10
2022-11-05T00:43:04.932Z,13.30
2022-11-05T00:45:32.442Z,13.10
2022-11-05T00:48:18.484Z,13.10
2022-11-05T00:50:46.592Z,13.10
2022-11-05T00:53:14.417Z,13.10
2022-11-05T00:55:44.930Z,13.00
2022-11-05T00:58:13.828Z,13.00
2022-11-05T01:00:49.459Z,13.00
2022-11-05T01:03:19.731Z,13.00
2022-11-05T01:05:49.351Z,13.00
2022-11-05T01:08:18.292Z,13.00
2022-11-05T01:10:48.652Z,12.50
2022-11-05T01:13:21.152Z,12.20
2022-11-05T01:15:52.779Z,12.20
2022-11-05T01:18:22.858Z,12.10
2022-11-05T01:20:51.209Z,12.10
2022-11-05T01:23:18.850Z,12.10
2022-11-05T01:25:46.596Z,12.20
2022-11-05T01:28:13.883Z,12.30
2022-11-05T01:30:47.724Z,12.30
2022-11-05T01:33:16.544Z,12.40
2022-11-05T01:35:43.761Z,12.50
2022-11-05T01:38:11.060Z,12.50
2022-11-05T01:40:43.121Z,12.40
2022-11-05T01:43:19.771Z,12.40
2022-11-05T01:45:53.764Z,12.50
2022-11-05T01:48:25.520Z,12.50
2022-11-05T01:50:57.844Z,12.50
2022-11-05T01:53:39.023Z,12.60
2022-11-05T01:56:18.940Z,12.70
2022-11-05T01:58:56.932Z,12.50
2022-11-05T02:01:24.821Z,12.40
2022-11-05T02:03:54.810Z,12.50
2022-11-05T02:06:22.202Z,12.50
2022-11-05T02:09:13.475Z,12.10
2022-11-05T02:11:40.926Z,11.80
2022-11-05T02:14:08.219Z,11.70
2022-11-05T02:16:39.868Z,11.90
2022-11-05T02:19:35.326Z,12.10
2022-11-05T02:22:30.917Z,12.30
2022-11-05T02:25:24.985Z,12.40
2022-11-05T02:28:35.214Z,12.30
2022-11-05T02:31:10.071Z,12.20
2022-11-05T02:34:11.364Z,12.10
2022-11-05T02:36:44.519Z,12.10
2022-11-05T02:39:14.786Z,12.10
2022-11-05T02:41:48.249Z,12.30
2022-11-05T02:44:43.942Z,12.40
2022-11-05T02:47:26.113Z,12.50
2022-11-05T02:50:27.682Z,12.60
2022-11-05T02:53:12.205Z,12.70
2022-11-05T02:55:49.948Z,12.70
2022-11-05T02:58:17.253Z,12.70
2022-11-05T03:00:52.839Z,12.60
2022-11-05T03:03:29.252Z,12.50
2022-11-05T03:06:22.945Z,12.50
2022-11-05T03:09:22.297Z,12.50
2022-11-05T03:12:14.576Z,12.50
2022-11-05T03:15:09.232Z,12.50
2022-11-05T03:17:45.326Z,12.50
2022-11-05T03:20:24.281Z,12.50
2022-11-05T03:23:00.830Z,12.40
2022-11-05T03:25:30.719Z,12.50
2022-11-05T03:28:03.916Z,12.50
2022-11-05T03:30:34.009Z,12.50
2022-11-05T03:33:15.842Z,12.50
2022-11-05T03:35:48.090Z,12.50
2022-11-05T03:38:24.709Z,12.50
2022-11-05T03:40:55.225Z,12.50
2022-11-05T03:43:28.878Z,12.50
2022-11-05T03:46:03.409Z,12.50
2022-11-05T03:48:35.477Z,12.50
2022-11-05T03:51:27.497Z,12.50
2022-11-05T03:54:00.100Z,12.60
2022-11-05T03:56:53.155Z,12.60
2022-11-05T03:59:21.534Z,12.50
2022-11-05T04:01:50.275Z,12.30
2022-11-05T04:04:17.642Z,12.20
2022-11-05T04:07:03.961Z,12.00
2022-11-05T04:09:49.662Z,11.80
2022-11-05T04:12:35.928Z,11.70
2022-11-05T04:15:04.061Z,11.90
2022-11-05T04:17:31.687Z,12.00
2022-11-05T04:20:19.839Z,12.20
2022-11-05T04:23:05.941Z,12.20
2022-11-05T04:25:34.176Z,12.30
2022-11-05T04:28:01.652Z,12.30
2022-11-05T04:30:30.230Z,12.30
2022-11-05T04:33:09.823Z,12.40
2022-11-05T04:35:55.837Z,12.50
2022-11-05T04:38:23.202Z,12.30
2022-11-05T04:40:50.399Z,12.10
2022-11-05T04:43:19.735Z,12.10
2022-11-05T04:45:50.863Z,12.20
2022-11-05T04:48:18.853Z,12.30
2022-11-05T04:50:46.375Z,12.40
2022-11-05T04:53:15.034Z,12.30
2022-11-05T04:55:42.346Z,12.40
2022-11-05T04:58:09.673Z,12.50
2022-11-05T05:00:43.825Z,12.50
2022-11-05T05:03:13.630Z,12.50
2022-11-05T05:05:41.168Z,12.40
2022-11-05T05:08:08.469Z,12.40
2022-11-05T05:10:36.295Z,12.50
2022-11-05T05:13:03.802Z,12.50
2022-11-05T05:15:31.689Z,12.50
2022-11-05T05:17:59.814Z,12.50
2022-11-05T05:20:45.702Z,12.60
2022-11-05T05:23:14.275Z,12.60
2022-11-05T05:25:41.627Z,12.50
2022-11-05T05:28:09.174Z,12.50
2022-11-05T05:30:41.400Z,12.50
2022-11-05T05:33:11.185Z,12.40
2022-11-05T05:35:38.662Z,12.40
2022-11-05T05:38:06.056Z,12.40
2022-11-05T05:40:33.371Z,12.50
2022-11-05T05:43:01.405Z,12.50
2022-11-05T05:45:29.801Z,12.50
2022-11-05T05:47:57.683Z,12.40
2022-11-05T05:50:25.089Z,12.50
2022-11-05T05:52:53.096Z,12.50
2022-11-05T05:55:20.542Z,12.50
2022-11-05T05:57:47.773Z,12.50
2022-11-05T06:00:15.418Z,12.60
2022-11-05T06:02:43.524Z,12.70
2022-11-05T06:05:11.297Z,12.80
2022-11-05T06:07:38.523Z,12.80
2022-11-05T06:10:07.578Z,12.90
2022-11-05T06:12:34.840Z,12.80
2022-11-05T06:15:07.272Z,12.70
2022-11-05T06:17:34.613Z,12.50
2022-11-05T06:20:01.817Z,12.50
2022-11-05T06:22:30.187Z,12.30
2022-11-05T06:24:58.349Z,12.30
2022-11-05T06:27:26.471Z,12.30
2022-11-05T06:29:53.714Z,12.50
2022-11-05T06:32:21.139Z,12.50
2022-11-05T06:34:48.487Z,12.60
2022-11-05T06:37:16.050Z,12.70
2022-11-05T06:39:44.544Z,12.70
2022-11-05T06:42:18.393Z,12.50
2022-11-05T06:44:46.358Z,12.70
2022-11-05T06:47:13.627Z,12.70
2022-11-05T06:49:41.643Z,12.80
2022-11-05T06:52:09.006Z,12.90
2022-11-05T06:54:37.286Z,12.80
2022-11-05T06:57:04.841Z,12.90
2022-11-05T06:59:32.440Z,12.90
2022-11-05T07:02:05.068Z,12.70
2022-11-05T07:04:33.008Z,12.50
2022-11-05T07:07:03.716Z,12.50
2022-11-05T07:09:31.207Z,12.50
2022-11-05T07:11:59.142Z,12.50
2022-11-05T07:14:26.703Z,12.50
2022-11-05T07:16:54.807Z,12.70
2022-11-05T07:19:22.291Z,12.80
2022-11-05T07:21:51.091Z,12.90
2022-11-05T07:24:19.005Z,13.00
2022-11-05T07:26:46.361Z,13.00
2022-11-05T07:29:13.840Z,13.00
2022-11-05T07:31:42.200Z,13.10
2022-11-05T07:34:10.514Z,13.10
2022-11-05T07:36:39.603Z,13.00
2022-11-05T07:39:07.072Z,13.10
2022-11-05T07:41:34.481Z,13.10
2022-11-05T07:44:01.760Z,13.30
2022-11-05T07:46:29.270Z,13.10
2022-11-05T07:48:58.673Z,13.10
2022-11-05T07:51:26.460Z,13.00
2022-11-05T07:53:53.712Z,13.00
2022-11-05T07:56:21.156Z,12.90
2022-11-05T07:58:48.446Z,13.00
2022-11-05T08:01:16.629Z,13.00
2022-11-05T08:03:44.101Z,13.10
2022-11-05T08:06:11.404Z,13.10
2022-11-05T08:08:38.662Z,13.30
2022-11-05T08:11:07.725Z,13.30
2022-11-05T08:13:35.532Z,13.50
2022-11-05T08:16:05.452Z,13.50
2022-11-05T08:18:34.221Z,13.60
2022-11-05T08:21:04.199Z,13.60
2022-11-05T08:23:33.094Z,13.70
2022-11-05T08:26:04.125Z,13.70
2022-11-05T08:28:32.127Z,13.70
2022-11-05T08:31:01.866Z,13.70
2022-11-05T08:33:31.668Z,13.70
2022-11-05T08:36:03.585Z,13.60
2022-11-05T08:38:31.382Z,13.60
2022-11-05T08:40:59.440Z,13.60
2022-11-05T08:43:27.668Z,13.70
2022-11-05T08:45:57.581Z,13.70
2022-11-05T08:48:26.401Z,13.70
2022-11-05T08:50:53.933Z,13.70
2022-11-05T08:53:21.312Z,13.60
2022-11-05T08:55:51.155Z,13.60
2022-11-05T08:58:20.262Z,13.60
2022-11-05T09:00:52.701Z,13.70
2022-11-05T09:03:21.487Z,13.80
2022-11-05T09:05:48.722Z,13.80
2022-11-05T09:08:19.454Z,13.80
2022-11-05T09:10:47.488Z,13.80
2022-11-05T09:13:19.311Z,13.90
2022-11-05T09:16:04.406Z,13.90
2022-11-05T09:18:31.828Z,13.90
2022-11-05T09:20:59.470Z,13.90
2022-11-05T09:23:26.847Z,13.90
2022-11-05T09:25:54.738Z,13.90
2022-11-05T09:28:24.250Z,13.90
2022-11-05T09:30:55.357Z,13.90
2022-11-05T09:33:25.291Z,14.00
2022-11-05T09:35:53.882Z,14.10
2022-11-05T09:38:21.370Z,14.10
2022-11-05T09:41:00.501Z,14.10
2022-11-05T09:43:50.718Z,13.90
2022-11-05T09:46:23.948Z,14.10
2022-11-05T09:49:03.420Z,14.20
2022-11-05T09:51:31.943Z,14.10
2022-11-05T09:54:01.519Z,14.20
2022-11-05T09:56:32.324Z,14.10
2022-11-05T09:59:02.965Z,14.10
2022-11-05T10:01:37.336Z,14.10
2022-11-05T10:04:18.184Z,14.10
2022-11-05T10:07:05.658Z,14.10
2022-11-05T10:09:43.156Z,14.10
2022-11-05T10:12:25.549Z,14.00
2022-11-05T10:15:07.068Z,14.00
2022-11-05T10:17:39.241Z,14.00
2022-11-05T10:20:33.803Z,14.00
2022-11-05T10:23:13.913Z,14.10
2022-11-05T10:26:10.939Z,14.20
2022-11-05T10:28:38.378Z,14.40
2022-11-05T10:31:09.064Z,14.40
2022-11-05T10:34:06.319Z,14.40
2022-11-05T10:36:38.253Z,14.50
2022-11-05T10:39:15.124Z,14.70
2022-11-05T10:42:27.997Z,14.80
2022-11-05T10:45:17.149Z,14.80
2022-11-05T10:48:44.009Z,14.70
2022-11-05T10:51:12.938Z,14.70
2022-11-05T10:53:43.910Z,14.70
2022-11-05T10:56:30.602Z,14.80
2022-11-05T10:59:00.605Z,14.80
2022-11-05T11:01:30.498Z,14.80
2022-11-05T11:04:38.078Z,14.80
2022-11-05T11:07:05.947Z,15.00
2022-11-05T11:09:36.733Z,15.00
2022-11-05T11:12:23.557Z,15.00
2022-11-05T11:15:13.744Z,15.20
2022-11-05T11:17:41.583Z,15.20
2022-11-05T11:20:14.918Z,15.30
2022-11-05T11:22:42.513Z,15.30
2022-11-05T11:25:25.307Z,15.40
2022-11-05T11:27:53.330Z,15.50
2022-11-05T11:30:21.390Z,15.50
2022-11-05T11:32:50.173Z,15.50
2022-11-05T11:35:24.079Z,15.60
2022-11-05T11:37:57.343Z,15.60
2022-11-05T11:40:31.675Z,15.60
2022-11-05T11:43:03.055Z,15.80
2022-11-05T11:45:40.578Z,15.60
2022-11-05T11:48:19.334Z,15.60
2022-11-05T11:50:48.709Z,15.70
2022-11-05T11:53:22.266Z,15.70
2022-11-05T11:55:55.696Z,15.80
2022-11-05T11:58:25.773Z,15.80
2022-11-05T12:01:07.031Z,15.60
2022-11-05T12:03:52.872Z,15.10
2022-11-05T12:06:38.481Z,14.90
2022-11-05T12:09:16.922Z,14.70
2022-11-05T12:12:11.922Z,14.70
2022-11-05T12:15:01.295Z,14.70
2022-11-05T12:17:47.425Z,14.60
2022-11-05T12:20:39.034Z,14.50
2022-11-05T12:23:13.075Z,14.50
2022-11-05T12:25:55.952Z,14.40
2022-11-05T12:29:18.578Z,14.20
2022-11-05T12:31:52.740Z,14.00
2022-11-05T12:34:50.111Z,13.90
2022-11-05T12:37:32.535Z,13.80
2022-11-05T12:40:27.039Z,13.70
2022-11-05T12:43:19.997Z,13.60
2022-11-05T12:45:58.173Z,13.80
2022-11-05T12:48:52.581Z,13.90
2022-11-05T12:51:48.716Z,13.80
2022-11-05T12:54:40.406Z,13.70
2022-11-05T12:57:12.833Z,13.90
2022-11-05T12:59:52.397Z,13.90
2022-11-05T13:02:55.159Z,13.90
2022-11-05T13:05:37.830Z,14.00
2022-11-05T13:08:14.726Z,13.90
2022-11-05T13:11:03.538Z,13.90
2022-11-05T13:13:59.710Z,13.90
2022-11-05T13:16:45.291Z,14.00
2022-11-05T13:19:37.872Z,14.10
2022-11-05T13:22:18.378Z,14.10
2022-11-05T13:24:50.745Z,14.20
2022-11-05T13:27:39.880Z,14.20
2022-11-05T13:30:15.481Z,14.20
2022-11-05T13:32:48.572Z,14.30
2022-11-05T13:35:26.633Z,14.30
2022-11-05T13:38:18.177Z,14.40
2022-11-05T13:41:27.113Z,14.50
2022-11-05T13:44:22.320Z,14.60
2022-11-05T13:47:27.014Z,14.50
2022-11-05T13:50:08.185Z,14.30
2022-11-05T13:53:06.439Z,14.20
2022-11-05T13:55:51.938Z,14.20
2022-11-05T13:58:54.435Z,14.30
2022-11-05T14:02:00.482Z,14.30
2022-11-05T14:04:47.177Z,14.40
2022-11-05T14:07:25.757Z,14.50
2022-11-05T14:10:01.927Z,14.50
2022-11-05T14:12:39.824Z,14.40
2022-11-05T14:15:18.355Z,14.40
2022-11-05T14:18:01.568Z,14.40
2022-11-05T14:20:31.938Z,14.20
2022-11-05T14:23:18.189Z,13.90
2022-11-05T14:25:46.093Z,13.90
2022-11-05T14:29:12.006Z,13.90
2022-11-05T14:32:11.784Z,14.00
2022-11-05T14:34:46.209Z,14.00
2022-11-05T14:37:13.845Z,14.00
2022-11-05T14:39:41.734Z,14.00
2022-11-05T14:42:22.530Z,14.00
2022-11-05T14:45:10.473Z,14.00
2022-11-05T14:47:43.364Z,14.00
2022-11-05T14:50:22.323Z,14.10
2022-11-05T14:52:58.330Z,14.10
2022-11-05T14:55:28.144Z,13.90
2022-11-05T14:57:56.166Z,13.90
2022-11-05T15:00:29.577Z,13.80
2022-11-05T15:02:59.418Z,13.60
2022-11-05T15:05:39.903Z,13.60
2022-11-05T15:08:29.204Z,13.60
2022-11-05T15:11:29.627Z,13.50
2022-11-05T15:14:29.061Z,13.50
2022-11-05T15:17:38.830Z,13.30
2022-11-05T15:20:24.037Z,13.30
2022-11-05T15:22:59.683Z,13.30
2022-11-05T15:25:50.388Z,13.50
2022-11-05T15:28:30.996Z,13.50
2022-11-05T15:31:13.369Z,13.50
2022-11-05T15:33:42.493Z,13.50
2022-11-05T15:36:11.530Z,13.50
2022-11-05T15:38:48.357Z,13.60
2022-11-05T15:41:34.767Z,13.60
2022-11-05T15:44:02.911Z,13.70
2022-11-05T15:46:30.307Z,13.60
2022-11-05T15:49:05.245Z,13.60
2022-11-05T15:51:33.398Z,13.60
2022-11-05T15:56:54.565Z,13.70
2022-11-05T15:59:24.848Z,13.70
2022-11-05T16:02:23.151Z,13.50
2022-11-05T16:04:51.680Z,13.30
2022-11-05T16:07:19.341Z,13.20
2022-11-05T16:09:58.620Z,13.10
2022-11-05T16:12:33.205Z,13.20
2022-11-05T16:15:10.061Z,13.10
2022-11-05T16:17:51.886Z,13.10
2022-11-05T16:20:24.575Z,13.10
2022-11-05T16:22:56.170Z,13.10
2022-11-05T16:25:31.591Z,13.10
2022-11-05T16:28:00.403Z,13.20
2022-11-05T16:30:28.460Z,13.10
2022-11-05T16:33:04.083Z,13.10
2022-11-05T16:35:31.624Z,12.90
2022-11-05T16:38:03.034Z,12.80
2022-11-05T16:40:30.389Z,12.80
2022-11-05T16:43:21.167Z,12.80
2022-11-05T16:45:59.038Z,12.90
2022-11-05T16:48:27.766Z,13.00
2022-11-05T16:50:55.518Z,12.90
2022-11-05T16:53:23.702Z,12.80
2022-11-05T16:55:51.047Z,12.90
2022-11-05T16:58:26.859Z,12.90
2022-11-05T17:01:10.375Z,12.90
2022-11-05T17:03:39.752Z,13.00
2022-11-05T17:06:08.095Z,12.80
2022-11-05T17:08:35.837Z,12.50
2022-11-05T17:11:03.966Z,12.40
2022-11-05T17:13:31.643Z,12.20
2022-11-05T17:16:02.358Z,12.10
2022-11-05T17:18:30.461Z,12.20
2022-11-05T17:20:57.834Z,12.40
2022-11-05T17:23:29.974Z,12.50
2022-11-05T17:26:02.122Z,12.50
2022-11-05T17:28:30.599Z,12.50
2022-11-05T17:31:05.946Z,12.30
2022-11-05T17:33:34.415Z,12.00
2022-11-05T17:36:07.921Z,12.00
2022-11-05T17:38:35.512Z,12.10
2022-11-05T17:41:10.332Z,12.10
2022-11-05T17:43:37.968Z,12.20
2022-11-05T17:46:09.821Z,12.40
2022-11-05T17:48:39.726Z,12.30
2022-11-05T17:51:15.160Z,12.30
2022-11-05T17:53:43.097Z,12.10
2022-11-05T17:56:22.125Z,12.20
2022-11-05T17:58:55.686Z,12.30
2022-11-05T18:01:27.222Z,12.30
2022-11-05T18:03:55.856Z,12.40
2022-11-05T18:06:23.639Z,12.30
2022-11-05T18:08:51.051Z,12.30
2022-11-05T18:11:18.702Z,12.30
2022-11-05T18:13:47.749Z,12.30
2022-11-05T18:16:17.829Z,12.30
2022-11-05T18:18:48.250Z,12.30
2022-11-05T18:21:16.436Z,11.70
2022-11-05T18:23:45.892Z,11.20
2022-11-05T18:26:16.246Z,11.30
2022-11-05T18:28:44.615Z,11.50
2022-11-05T18:31:20.681Z,11.70
2022-11-05T18:33:50.626Z,11.80
2022-11-05T18:36:23.871Z,11.90
2022-11-05T18:38:51.946Z,12.00
2022-11-05T18:41:20.509Z,12.10
2022-11-05T18:43:48.640Z,12.10
2022-11-05T18:46:43.097Z,11.90
2022-11-05T18:49:06.234Z,11.60
2022-11-05T18:51:33.850Z,11.70
2022-11-05T18:54:01.365Z,11.70
2022-11-05T18:56:28.735Z,11.70
2022-11-05T18:59:22.000Z,11.70
2022-11-05T19:01:43.709Z,11.90
2022-11-05T19:04:11.997Z,11.70
2022-11-05T19:06:40.793Z,11.50
2022-11-05T19:09:10.202Z,11.50
2022-11-05T19:11:38.273Z,11.60
2022-11-05T19:14:05.546Z,11.70
2022-11-05T19:16:33.839Z,11.70
2022-11-05T19:19:04.326Z,11.80
2022-11-05T19:21:32.356Z,11.90
2022-11-05T19:24:02.182Z,11.80
2022-11-05T19:26:31.118Z,11.50
2022-11-05T19:29:00.244Z,11.30
2022-11-05T19:31:28.188Z,11.30
2022-11-05T19:33:55.583Z,11.50
2022-11-05T19:36:24.853Z,11.60
2022-11-05T19:38:58.085Z,11.70
2022-11-05T19:41:26.448Z,11.60
2022-11-05T19:43:54.479Z,11.60
2022-11-05T19:46:26.519Z,11.50
2022-11-05T19:48:54.691Z,11.50
2022-11-05T19:51:27.816Z,11.50
2022-11-05T19:53:56.142Z,11.40
2022-11-05T19:56:32.810Z,11.40
2022-11-05T19:59:01.060Z,11.10
2022-11-05T20:01:29.809Z,11.10
2022-11-05T20:03:59.087Z,11.10
2022-11-05T20:06:38.373Z,11.30
2022-11-05T20:09:25.242Z,11.40
2022-11-05T20:11:54.663Z,11.40
2022-11-05T20:14:23.744Z,11.00
2022-11-05T20:16:51.618Z,10.80
2022-11-05T20:19:20.839Z,10.80
2022-11-05T20:21:49.163Z,10.90
2022-11-05T20:24:24.098Z,11.00
2022-11-05T20:26:56.252Z,10.90
2022-11-05T20:29:27.844Z,10.90
2022-11-05T20:31:58.642Z,10.90
2022-11-05T20:34:25.886Z,10.90
2022-11-05T20:36:53.157Z,10.70
2022-11-05T20:39:21.822Z,10.70
2022-11-05T20:41:49.230Z,10.70
2022-11-05T20:44:16.436Z,10.70
2022-11-05T20:46:43.791Z,10.40
2022-11-05T20:49:11.706Z,10.50
2022-11-05T20:51:39.963Z,10.60
2022-11-05T20:54:07.248Z,10.70
2022-11-05T20:56:35.561Z,10.80
2022-11-05T20:59:04.010Z,10.80
2022-11-05T21:01:34.131Z,10.70
2022-11-05T21:04:03.191Z,10.20
2022-11-05T21:06:31.066Z,10.20
2022-11-05T21:08:58.997Z,10.20
2022-11-05T21:11:26.339Z,10.30
2022-11-05T21:13:53.669Z,10.50
2022-11-05T21:16:21.720Z,10.60
2022-11-05T21:18:49.258Z,10.70
2022-11-05T21:21:20.203Z,10.60
2022-11-05T21:23:48.318Z,10.60
2022-11-05T21:26:16.970Z,10.80
2022-11-05T21:28:44.458Z,10.70
2022-11-05T21:31:12.567Z,10.70
2022-11-05T21:33:40.266Z,10.70
2022-11-05T21:36:10.513Z,10.60
2022-11-05T21:38:38.501Z,10.30
2022-11-05T21:41:07.122Z,10.40
2022-11-05T21:43:34.983Z,10.70
2022-11-05T21:46:06.014Z,10.60
2022-11-05T21:48:34.085Z,10.70
2022-11-05T21:51:19.905Z,10.80
2022-11-05T21:54:05.727Z,10.80
2022-11-05T21:56:52.117Z,10.80
2022-11-05T21:59:41.025Z,11.00
2022-11-05T22:02:10.189Z,11.10
2022-11-05T22:04:40.148Z,11.20
2022-11-05T22:07:10.160Z,10.90
2022-11-05T22:09:37.630Z,10.90
2022-11-05T22:12:06.383Z,11.00
2022-11-05T22:14:34.416Z,11.00
2022-11-05T22:17:01.932Z,11.10
2022-11-05T22:19:29.277Z,11.20
2022-11-05T22:21:56.793Z,11.20
2022-11-05T22:24:24.625Z,11.10
2022-11-05T22:26:52.031Z,10.90
2022-11-05T22:29:20.195Z,10.90
2022-11-05T22:31:47.486Z,11.00
2022-11-05T22:34:14.856Z,11.10
2022-11-05T22:36:42.596Z,11.10
2022-11-05T22:39:12.236Z,11.30
2022-11-05T22:41:41.102Z,11.30
2022-11-05T22:44:10.937Z,11.20
2022-11-05T22:46:39.921Z,11.10
2022-11-05T22:49:07.976Z,11.20
2022-11-05T22:51:37.230Z,11.40
2022-11-05T22:54:05.477Z,11.50
2022-11-05T22:56:36.712Z,11.50
2022-11-05T22:59:05.699Z,11.40
2022-11-05T23:01:33.047Z,11.30
2022-11-05T23:04:01.091Z,11.20
2022-11-05T23:06:49.440Z,11.10
2022-11-05T23:09:36.829Z,11.20
2022-11-05T23:12:07.620Z,11.10
2022-11-05T23:14:36.743Z,11.10
2022-11-05T23:17:23.017Z,11.10
2022-11-05T23:20:08.971Z,11.10
2022-11-05T23:22:55.399Z,11.00
2022-11-05T23:25:23.739Z,10.90
2022-11-05T23:27:53.438Z,10.80
2022-11-05T23:30:27.134Z,10.60
2022-11-05T23:32:56.021Z,10.60
2022-11-05T23:35:43.328Z,10.80
2022-11-05T23:38:29.458Z,11.00
2022-11-05T23:41:22.887Z,11.00
2022-11-05T23:44:09.463Z,11.00
2022-11-05T23:46:55.536Z,10.90
2022-11-05T23:49:23.054Z,11.00
2022-11-05T23:51:57.277Z,11.00
2022-11-05T23:54:34.633Z,11.40
2022-11-05T23:57:03.808Z,11.30
2022-11-05T23:59:31.483Z,11.30
